Rechercher aéroport 
image banner adimage banner adimage banner ad
image banner ad

KCXY - Capital City

Situé à Harrisburg, United States

ICAO - CXY, IATA - HAR

Données fournies par Airmate  

Information générale

Coordonnées: N40°13'2" W76°51'5"
Élévation : 347 feet MSL.
Variation magnétique : -11° East
Voir autres Aéroports à Pennsylvania

Données opérationnelles

Special qualification required
Heure actuelle UTC:
Heure actuelle locale:
Météo
METAR: KCXY 132056Z 18004KT 10SM OVC037 25/19 A2985 RMK AO2 SLP107 T02500194 58015 $
Voir NOTAMs / SUP AIP / TFR affectant cet aéroport [VIEW]
Fréquences de communication: [VIEW]

Pistes:

Identifiant RWYQFULongueur (ft)Largeur (ft)SurfaceLDA (ft)
0871°5000150ASPH
26251°5000150ASPH
12117°3778100ASPH
30297°3778100ASPH

Coordonnées de l'aéroport

Adresse: Harrisburg United States

Autres services d'aviation

Écoles de pilotage

Cargill Aeronautical Academy & Service Center

Cargill Aeronautical Academy & Service Center

Vue satellite de KCXY